White Post, Virginia
Current Conditions -  °F | °C
As of 8:35 AM on Friday 28 Nov 2014 (Local Time) from KOKV Reporting Station
Clear Clear  
Wind Chill: -4°   Ceiling: Unl
Heat Index:   Visibility: 10mi
Dew Point: -8°   Wind: 9mph
Humidity: 55%   Direction: 300°WNW
Pressure: 30.29"   Gusts: NA
Location:  39.06°N, 78.1°W
Report Text: KOKV 281335Z AUTO 30008KT 10SM CLR 00/M08 A3029 RMK AO2
Loading
Personal Weather Stations






























Interactive Weather Map New forecast layout! Learn more

10-Day Weather Forecast

Advertisements
Track Severe Weather on mobile